sensor_id;sensor_type;location;lat;lon;timestamp;pressure;altitude;pressure_sealevel;temperature;humidity
13690;BME280;6917;52.194;9.894;2023-01-31T00:01:13;100706.44;;;3.16;100.00
13690;BME280;6917;52.194;9.894;2023-01-31T00:03:39;100703.75;;;3.16;100.00
13690;BME280;6917;52.194;9.894;2023-01-31T00:06:28;100696.44;;;3.11;100.00
13690;BME280;6917;52.194;9.894;2023-01-31T00:08:55;100714.22;;;3.07;100.00
13690;BME280;6917;52.194;9.894;2023-01-31T00:11:24;100716.59;;;3.04;100.00
13690;BME280;6917;52.194;9.894;2023-01-31T00:13:50;100709.81;;;3.01;100.00
13690;BME280;6917;52.194;9.894;2023-01-31T00:16:17;100718.28;;;3.10;100.00
13690;BME280;6917;52.194;9.894;2023-01-31T00:18:43;100731.78;;;3.10;100.00
13690;BME280;6917;52.194;9.894;2023-01-31T00:21:19;100725.03;;;3.12;100.00
13690;BME280;6917;52.194;9.894;2023-01-31T00:23:45;100734.00;;;3.18;100.00
13690;BME280;6917;52.194;9.894;2023-01-31T00:26:22;100726.75;;;3.18;100.00
13690;BME280;6917;52.194;9.894;2023-01-31T00:28:50;100720.28;;;3.19;100.00
13690;BME280;6917;52.194;9.894;2023-01-31T00:31:16;100727.34;;;3.25;100.00
13690;BME280;6917;52.194;9.894;2023-01-31T00:33:43;100750.03;;;3.29;100.00
13690;BME280;6917;52.194;9.894;2023-01-31T00:36:11;100745.47;;;3.30;100.00
13690;BME280;6917;52.194;9.894;2023-01-31T00:38:38;100739.56;;;3.33;100.00
13690;BME280;6917;52.194;9.894;2023-01-31T00:41:04;100746.09;;;3.37;100.00
13690;BME280;6917;52.194;9.894;2023-01-31T00:43:30;100747.16;;;3.36;100.00
13690;BME280;6917;52.194;9.894;2023-01-31T00:45:56;100748.81;;;3.42;100.00
13690;BME280;6917;52.194;9.894;2023-01-31T00:48:21;100740.81;;;3.52;100.00
13690;BME280;6917;52.194;9.894;2023-01-31T00:50:47;100754.56;;;3.51;100.00
13690;BME280;6917;52.194;9.894;2023-01-31T00:53:12;100750.81;;;3.52;100.00
13690;BME280;6917;52.194;9.894;2023-01-31T00:55:37;100746.13;;;3.42;100.00
13690;BME280;6917;52.194;9.894;2023-01-31T00:58:03;100757.16;;;3.36;100.00
13690;BME280;6917;52.194;9.894;2023-01-31T01:00:28;100763.28;;;3.31;100.00
13690;BME280;6917;52.194;9.894;2023-01-31T01:02:54;100764.91;;;3.32;100.00
13690;BME280;6917;52.194;9.894;2023-01-31T01:05:19;100766.00;;;3.31;100.00
13690;BME280;6917;52.194;9.894;2023-01-31T01:07:44;100760.34;;;3.33;100.00
13690;BME280;6917;52.194;9.894;2023-01-31T01:10:10;100760.34;;;3.33;100.00
13690;BME280;6917;52.194;9.894;2023-01-31T01:12:36;100765.50;;;3.34;100.00
13690;BME280;6917;52.194;9.894;2023-01-31T01:15:01;100770.91;;;3.34;100.00
13690;BME280;6917;52.194;9.894;2023-01-31T01:17:26;100761.19;;;3.33;100.00
13690;BME280;6917;52.194;9.894;2023-01-31T01:19:52;100764.34;;;3.30;100.00
13690;BME280;6917;52.194;9.894;2023-01-31T01:22:17;100766.50;;;3.28;100.00
13690;BME280;6917;52.194;9.894;2023-01-31T01:24:43;100770.03;;;3.28;100.00
13690;BME280;6917;52.194;9.894;2023-01-31T01:27:09;100781.88;;;3.27;100.00
13690;BME280;6917;52.194;9.894;2023-01-31T01:29:35;100782.72;;;3.28;100.00
13690;BME280;6917;52.194;9.894;2023-01-31T01:32:01;100789.72;;;3.29;100.00
13690;BME280;6917;52.194;9.894;2023-01-31T01:34:26;100792.44;;;3.29;100.00
13690;BME280;6917;52.194;9.894;2023-01-31T01:36:52;100795.13;;;3.29;100.00
13690;BME280;6917;52.194;9.894;2023-01-31T01:39:17;100793.50;;;3.28;100.00
13690;BME280;6917;52.194;9.894;2023-01-31T01:41:43;100789.72;;;3.29;100.00
13690;BME280;6917;52.194;9.894;2023-01-31T01:49:54;100803.50;;;3.27;100.00
13690;BME280;6917;52.194;9.894;2023-01-31T01:52:24;100803.50;;;3.27;100.00
13690;BME280;6917;52.194;9.894;2023-01-31T01:55:01;100811.88;;;3.31;100.00
13690;BME280;6917;52.194;9.894;2023-01-31T01:57:37;100803.88;;;3.36;100.00
13690;BME280;6917;52.194;9.894;2023-01-31T02:02:29;100804.97;;;3.40;100.00
13690;BME280;6917;52.194;9.894;2023-01-31T02:04:55;100804.72;;;3.42;100.00
13690;BME280;6917;52.194;9.894;2023-01-31T02:07:20;100816.88;;;3.44;100.00
13690;BME280;6917;52.194;9.894;2023-01-31T02:12:17;100811.22;;;3.46;100.00
13690;BME280;6917;52.194;9.894;2023-01-31T02:14:44;100816.41;;;3.47;100.00
13690;BME280;6917;52.194;9.894;2023-01-31T02:17:16;100820.97;;;3.47;100.00
13690;BME280;6917;52.194;9.894;2023-01-31T02:20:24;100819.59;;;3.44;100.00
13690;BME280;6917;52.194;9.894;2023-01-31T02:25:59;100836.34;;;3.46;100.00
13690;BME280;6917;52.194;9.894;2023-01-31T02:33:54;100819.03;;;3.42;100.00
13690;BME280;6917;52.194;9.894;2023-01-31T02:36:49;100824.19;;;3.44;100.00
13690;BME280;6917;52.194;9.894;2023-01-31T02:44:53;100828.09;;;3.31;100.00
13690;BME280;6917;52.194;9.894;2023-01-31T02:50:05;100845.94;;;3.32;100.00
13690;BME280;6917;52.194;9.894;2023-01-31T02:55:58;100837.56;;;3.07;100.00
13690;BME280;6917;52.194;9.894;2023-01-31T02:59:03;100837.97;;;2.98;100.00
13690;BME280;6917;52.194;9.894;2023-01-31T03:01:32;100829.84;;;2.93;100.00
13690;BME280;6917;52.194;9.894;2023-01-31T03:04:03;100832.53;;;2.93;100.00
13690;BME280;6917;52.194;9.894;2023-01-31T03:17:19;100820.34;;;3.13;100.00
13690;BME280;6917;52.194;9.894;2023-01-31T03:22:47;100814.44;;;3.16;100.00
13690;BME280;6917;52.194;9.894;2023-01-31T03:25:16;100817.69;;;3.18;100.00
13690;BME280;6917;52.194;9.894;2023-01-31T03:27:45;100815.31;;;3.21;100.00
13690;BME280;6917;52.194;9.894;2023-01-31T03:32:52;100811.34;;;3.29;100.00
13690;BME280;6917;52.194;9.894;2023-01-31T03:35:20;100809.19;;;3.31;100.00
13690;BME280;6917;52.194;9.894;2023-01-31T03:37:56;100815.19;;;3.33;100.00
13690;BME280;6917;52.194;9.894;2023-01-31T03:40:32;100803.53;;;3.33;100.00
13690;BME280;6917;52.194;9.894;2023-01-31T03:45:45;100806.56;;;3.36;100.00
13690;BME280;6917;52.194;9.894;2023-01-31T03:48:13;100794.13;;;3.35;100.00
13690;BME280;6917;52.194;9.894;2023-01-31T03:50:57;100788.22;;;3.38;100.00
13690;BME280;6917;52.194;9.894;2023-01-31T03:53:48;100797.13;;;3.39;100.00
13690;BME280;6917;52.194;9.894;2023-01-31T03:56:25;100796.06;;;3.40;100.00
13690;BME280;6917;52.194;9.894;2023-01-31T03:58:56;100794.44;;;3.39;100.00
13690;BME280;6917;52.194;9.894;2023-01-31T04:01:25;100803.59;;;3.38;100.00
13690;BME280;6917;52.194;9.894;2023-01-31T04:04:00;100800.84;;;3.33;100.00
13690;BME280;6917;52.194;9.894;2023-01-31T04:06:26;100794.03;;;3.25;100.00
13690;BME280;6917;52.194;9.894;2023-01-31T04:08:52;100802.06;;;3.20;100.00
13690;BME280;6917;52.194;9.894;2023-01-31T04:11:20;100795.53;;;3.16;100.00
13690;BME280;6917;52.194;9.894;2023-01-31T04:13:48;100799.81;;;3.12;100.00
13690;BME280;6917;52.194;9.894;2023-01-31T04:16:13;100804.91;;;3.08;100.00
13690;BME280;6917;52.194;9.894;2023-01-31T04:18:39;100800.50;;;3.02;100.00
13690;BME280;6917;52.194;9.894;2023-01-31T04:21:04;100787.78;;;2.97;100.00
13690;BME280;6917;52.194;9.894;2023-01-31T04:23:30;100801.22;;;2.92;100.00
13690;BME280;6917;52.194;9.894;2023-01-31T04:25:55;100797.16;;;2.90;100.00
13690;BME280;6917;52.194;9.894;2023-01-31T04:28:21;100793.63;;;2.89;100.00
13690;BME280;6917;52.194;9.894;2023-01-31T04:30:51;100790.34;;;2.87;100.00
13690;BME280;6917;52.194;9.894;2023-01-31T04:33:17;100799.25;;;2.88;100.00
13690;BME280;6917;52.194;9.894;2023-01-31T04:35:42;100801.72;;;2.89;100.00
13690;BME280;6917;52.194;9.894;2023-01-31T04:38:07;100798.19;;;2.89;100.00
13690;BME280;6917;52.194;9.894;2023-01-31T04:40:32;100803.34;;;2.90;100.00
13690;BME280;6917;52.194;9.894;2023-01-31T04:42:58;100814.16;;;2.90;100.00
13690;BME280;6917;52.194;9.894;2023-01-31T04:45:23;100786.34;;;2.90;100.00
13690;BME280;6917;52.194;9.894;2023-01-31T04:47:48;100794.69;;;2.88;100.00
13690;BME280;6917;52.194;9.894;2023-01-31T04:50:14;100803.34;;;2.90;100.00
13690;BME280;6917;52.194;9.894;2023-01-31T04:52:39;100808.84;;;3.01;100.00
13690;BME280;6917;52.194;9.894;2023-01-31T04:55:05;100800.50;;;3.02;100.00
13690;BME280;6917;52.194;9.894;2023-01-31T04:57:30;100802.66;;;3.00;100.00
13690;BME280;6917;52.194;9.894;2023-01-31T04:59:55;100807.19;;;2.94;100.00
13690;BME280;6917;52.194;9.894;2023-01-31T05:02:21;100813.66;;;2.93;100.00
13690;BME280;6917;52.194;9.894;2023-01-31T05:04:47;100811.69;;;2.89;100.00
13690;BME280;6917;52.194;9.894;2023-01-31T05:07:12;100811.06;;;2.82;100.00
13690;BME280;6917;52.194;9.894;2023-01-31T05:09:38;100815.94;;;2.85;100.00
13690;BME280;6917;52.194;9.894;2023-01-31T05:12:03;100824.59;;;2.87;100.00
13690;BME280;6917;52.194;9.894;2023-01-31T05:14:29;100816.22;;;2.83;100.00
13690;BME280;6917;52.194;9.894;2023-01-31T05:16:54;100821.31;;;2.80;100.00
13690;BME280;6917;52.194;9.894;2023-01-31T05:19:19;100817.84;;;2.84;100.00
13690;BME280;6917;52.194;9.894;2023-01-31T05:21:44;100820.03;;;2.87;100.00
13690;BME280;6917;52.194;9.894;2023-01-31T05:24:22;100818.75;;;2.90;100.00
13690;BME280;6917;52.194;9.894;2023-01-31T05:26:48;100815.44;;;2.88;100.00
13690;BME280;6917;52.194;9.894;2023-01-31T05:29:16;100811.69;;;2.89;100.00
13690;BME280;6917;52.194;9.894;2023-01-31T05:31:41;100816.25;;;2.88;100.00
13690;BME280;6917;52.194;9.894;2023-01-31T05:34:06;100815.44;;;2.88;100.00
13690;BME280;6917;52.194;9.894;2023-01-31T05:36:33;100818.41;;;2.86;100.00
13690;BME280;6917;52.194;9.894;2023-01-31T05:38:58;100807.84;;;2.85;100.00
13690;BME280;6917;52.194;9.894;2023-01-31T05:41:23;100807.56;;;2.81;100.00
13690;BME280;6917;52.194;9.894;2023-01-31T05:43:48;100808.38;;;2.82;100.00
13690;BME280;6917;52.194;9.894;2023-01-31T05:46:14;100803.22;;;2.80;100.00
13690;BME280;6917;52.194;9.894;2023-01-31T05:48:39;100804.03;;;2.81;100.00
13690;BME280;6917;52.194;9.894;2023-01-31T05:51:04;100803.22;;;2.80;100.00
13690;BME280;6917;52.194;9.894;2023-01-31T05:53:30;100797.84;;;2.80;100.00
13690;BME280;6917;52.194;9.894;2023-01-31T05:55:55;100800.03;;;2.83;100.00
13690;BME280;6917;52.194;9.894;2023-01-31T05:58:20;100799.50;;;2.86;100.00
13690;BME280;6917;52.194;9.894;2023-01-31T06:00:46;100799.03;;;2.89;100.00
13690;BME280;6917;52.194;9.894;2023-01-31T06:03:11;100797.97;;;2.90;100.00
13690;BME280;6917;52.194;9.894;2023-01-31T06:05:36;100788.25;;;2.89;100.00
13690;BME280;6917;52.194;9.894;2023-01-31T06:08:04;100793.38;;;2.91;100.00
13690;BME280;6917;52.194;9.894;2023-01-31T06:10:29;100782.59;;;2.91;100.00
13690;BME280;6917;52.194;9.894;2023-01-31T06:12:55;100771.84;;;2.96;100.00
13690;BME280;6917;52.194;9.894;2023-01-31T06:15:20;100772.09;;;2.94;100.00
13690;BME280;6917;52.194;9.894;2023-01-31T06:17:45;100782.06;;;2.94;100.00
13690;BME280;6917;52.194;9.894;2023-01-31T06:20:11;100782.06;;;2.94;100.00
13690;BME280;6917;52.194;9.894;2023-01-31T06:22:36;100788.53;;;2.93;100.00
13690;BME280;6917;52.194;9.894;2023-01-31T06:25:02;100776.44;;;2.95;100.00
13690;BME280;6917;52.194;9.894;2023-01-31T06:27:30;100782.06;;;2.94;100.00
13690;BME280;6917;52.194;9.894;2023-01-31T06:29:56;100784.78;;;2.94;100.00
13690;BME280;6917;52.194;9.894;2023-01-31T06:32:21;100784.00;;;2.98;100.00
13690;BME280;6917;52.194;9.894;2023-01-31T06:34:47;100787.25;;;3.01;100.00
13690;BME280;6917;52.194;9.894;2023-01-31T06:37:12;100787.25;;;3.01;100.00
13690;BME280;6917;52.194;9.894;2023-01-31T06:39:37;100780.31;;;3.05;100.00
13690;BME280;6917;52.194;9.894;2023-01-31T06:42:03;100777.34;;;3.06;100.00
13690;BME280;6917;52.194;9.894;2023-01-31T06:44:28;100769.00;;;3.08;100.00
13690;BME280;6917;52.194;9.894;2023-01-31T06:46:53;100773.91;;;3.11;100.00
13690;BME280;6917;52.194;9.894;2023-01-31T06:49:19;100780.41;;;3.15;100.00
13690;BME280;6917;52.194;9.894;2023-01-31T06:51:44;100771.25;;;3.16;100.00
13690;BME280;6917;52.194;9.894;2023-01-31T06:54:09;100759.63;;;3.15;100.00
13690;BME280;6917;52.194;9.894;2023-01-31T06:56:35;100754.56;;;3.19;100.00
13690;BME280;6917;52.194;9.894;2023-01-31T06:59:00;100755.66;;;3.23;100.00
13690;BME280;6917;52.194;9.894;2023-01-31T07:01:25;100761.91;;;3.28;100.00
13690;BME280;6917;52.194;9.894;2023-01-31T07:03:51;100766.25;;;3.29;100.00
13690;BME280;6917;52.194;9.894;2023-01-31T07:06:16;100754.38;;;3.31;100.00
13690;BME280;6917;52.194;9.894;2023-01-31T07:08:44;100747.41;;;3.35;100.00
13690;BME280;6917;52.194;9.894;2023-01-31T07:11:09;100749.34;;;3.39;100.00
13690;BME280;6917;52.194;9.894;2023-01-31T07:13:35;100747.19;;;3.41;100.00
13690;BME280;6917;52.194;9.894;2023-01-31T07:16:00;100746.41;;;3.46;100.00
13690;BME280;6917;52.194;9.894;2023-01-31T07:18:25;100730.53;;;3.49;100.00
13690;BME280;6917;52.194;9.894;2023-01-31T07:20:51;100736.47;;;3.51;100.00
13690;BME280;6917;52.194;9.894;2023-01-31T07:23:16;100735.41;;;3.52;100.00
13690;BME280;6917;52.194;9.894;2023-01-31T07:25:41;100724.09;;;3.55;100.00
13690;BME280;6917;52.194;9.894;2023-01-31T07:28:06;100715.72;;;3.57;100.00
13690;BME280;6917;52.194;9.894;2023-01-31T07:30:32;100714.66;;;3.58;100.00
13690;BME280;6917;52.194;9.894;2023-01-31T07:32:58;100699.81;;;3.61;100.00
13690;BME280;6917;52.194;9.894;2023-01-31T07:35:24;100695.78;;;3.63;100.00
13690;BME280;6917;52.194;9.894;2023-01-31T07:37:52;100695.28;;;3.66;100.00
13690;BME280;6917;52.194;9.894;2023-01-31T07:40:18;100691.50;;;3.67;100.00
13690;BME280;6917;52.194;9.894;2023-01-31T07:42:43;100684.75;;;3.70;100.00
13690;BME280;6917;52.194;9.894;2023-01-31T07:45:14;100679.91;;;3.72;100.00
13690;BME280;6917;52.194;9.894;2023-01-31T07:47:39;100668.56;;;3.75;100.00
13690;BME280;6917;52.194;9.894;2023-01-31T07:50:07;100669.69;;;3.79;100.00
13690;BME280;6917;52.194;9.894;2023-01-31T07:52:32;100676.19;;;3.83;100.00
13690;BME280;6917;52.194;9.894;2023-01-31T07:54:58;100669.97;;;3.82;100.00
13690;BME280;6917;52.194;9.894;2023-01-31T07:57:23;100657.28;;;3.88;100.00
13690;BME280;6917;52.194;9.894;2023-01-31T07:59:48;100663.28;;;3.95;100.00
13690;BME280;6917;52.194;9.894;2023-01-31T08:02:15;100658.72;;;4.01;100.00
13690;BME280;6917;52.194;9.894;2023-01-31T08:05:00;100664.19;;;4.06;100.00
13690;BME280;6917;52.194;9.894;2023-01-31T08:07:26;100654.72;;;4.08;100.00
13690;BME280;6917;52.194;9.894;2023-01-31T08:09:51;100674.19;;;4.10;100.00
13690;BME280;6917;52.194;9.894;2023-01-31T08:12:17;100673.38;;;4.15;100.00
13690;BME280;6917;52.194;9.894;2023-01-31T08:14:42;100672.84;;;4.18;100.00
13690;BME280;6917;52.194;9.894;2023-01-31T08:17:08;100672.59;;;4.14;100.00
13690;BME280;6917;52.194;9.894;2023-01-31T08:19:34;100667.16;;;4.14;100.00
13690;BME280;6917;52.194;9.894;2023-01-31T08:22:01;100653.38;;;4.16;100.00
13690;BME280;6917;52.194;9.894;2023-01-31T08:24:26;100647.22;;;4.21;100.00
13690;BME280;6917;52.194;9.894;2023-01-31T08:26:51;100641.00;;;4.25;100.00
13690;BME280;6917;52.194;9.894;2023-01-31T08:29:17;100635.06;;;4.33;100.00
13690;BME280;6917;52.194;9.894;2023-01-31T08:31:42;100622.94;;;4.41;100.00
13690;BME280;6917;52.194;9.894;2023-01-31T08:34:08;100607.50;;;4.46;100.00
13690;BME280;6917;52.194;9.894;2023-01-31T08:36:34;100608.38;;;4.52;100.00
13690;BME280;6917;52.194;9.894;2023-01-31T08:39:00;100599.16;;;4.53;100.00
13690;BME280;6917;52.194;9.894;2023-01-31T08:41:27;100612.41;;;4.55;100.00
13690;BME280;6917;52.194;9.894;2023-01-31T08:43:53;100615.13;;;4.55;100.00
13690;BME280;6917;52.194;9.894;2023-01-31T08:46:20;100618.66;;;4.60;100.00
13690;BME280;6917;52.194;9.894;2023-01-31T08:48:45;100609.16;;;4.63;99.96
13690;BME280;6917;52.194;9.894;2023-01-31T08:51:12;100592.94;;;4.63;99.85
13690;BME280;6917;52.194;9.894;2023-01-31T08:53:38;100592.13;;;4.62;99.75
13690;BME280;6917;52.194;9.894;2023-01-31T08:56:05;100618.13;;;4.63;99.57
13690;BME280;6917;52.194;9.894;2023-01-31T08:58:32;100596.22;;;4.65;100.00
13690;BME280;6917;52.194;9.894;2023-01-31T09:01:01;100591.06;;;4.68;100.00
13690;BME280;6917;52.194;9.894;2023-01-31T09:03:27;100589.44;;;4.67;100.00
13690;BME280;6917;52.194;9.894;2023-01-31T09:05:52;100578.34;;;4.69;99.79
13690;BME280;6917;52.194;9.894;2023-01-31T09:08:18;100564.53;;;4.70;99.61
13690;BME280;6917;52.194;9.894;2023-01-31T09:10:50;100582.41;;;4.71;99.55
13690;BME280;6917;52.194;9.894;2023-01-31T09:13:16;100580.25;;;4.73;99.35
13690;BME280;6917;52.194;9.894;2023-01-31T09:15:41;100577.81;;;4.72;99.33
13690;BME280;6917;52.194;9.894;2023-01-31T09:18:06;100565.91;;;4.73;99.43
13690;BME280;6917;52.194;9.894;2023-01-31T09:20:31;100560.22;;;4.74;99.00
13690;BME280;6917;52.194;9.894;2023-01-31T09:22:57;100579.47;;;4.78;98.84
13690;BME280;6917;52.194;9.894;2023-01-31T09:25:22;100551.00;;;4.75;98.07
13690;BME280;6917;52.194;9.894;2023-01-31T09:27:47;100563.47;;;4.76;98.23
13690;BME280;6917;52.194;9.894;2023-01-31T09:30:13;100562.41;;;4.77;98.51
13690;BME280;6917;52.194;9.894;2023-01-31T09:32:38;100570.25;;;4.79;97.95
13690;BME280;6917;52.194;9.894;2023-01-31T09:35:05;100572.97;;;4.79;98.31
13690;BME280;6917;52.194;9.894;2023-01-31T09:37:31;100564.03;;;4.78;98.12
13690;BME280;6917;52.194;9.894;2023-01-31T09:39:56;100563.22;;;4.78;98.18
13690;BME280;6917;52.194;9.894;2023-01-31T09:42:32;100549.94;;;4.76;98.66
13690;BME280;6917;52.194;9.894;2023-01-31T09:45:08;100554.53;;;4.71;99.55
13690;BME280;6917;52.194;9.894;2023-01-31T09:47:38;100549.41;;;4.64;100.00
13690;BME280;6917;52.194;9.894;2023-01-31T09:50:21;100568.59;;;4.58;100.00
13690;BME280;6917;52.194;9.894;2023-01-31T09:52:48;100561.56;;;4.52;100.00
13690;BME280;6917;52.194;9.894;2023-01-31T09:55:18;100569.91;;;4.35;100.00
13690;BME280;6917;52.194;9.894;2023-01-31T10:03:34;100547.34;;;3.94;100.00
13690;BME280;6917;52.194;9.894;2023-01-31T10:08:57;100527.84;;;3.81;100.00
13690;BME280;6917;52.194;9.894;2023-01-31T10:11:31;100515.66;;;3.79;100.00
13690;BME280;6917;52.194;9.894;2023-01-31T10:14:23;100511.59;;;3.76;100.00
13690;BME280;6917;52.194;9.894;2023-01-31T10:19:30;100488.06;;;3.72;100.00
13690;BME280;6917;52.194;9.894;2023-01-31T10:22:03;100484.00;;;3.69;100.00
13690;BME280;6917;52.194;9.894;2023-01-31T10:27:04;100487.78;;;3.68;100.00
13690;BME280;6917;52.194;9.894;2023-01-31T10:29:35;100475.91;;;3.69;100.00
13690;BME280;6917;52.194;9.894;2023-01-31T10:32:05;100478.59;;;3.69;100.00
13690;BME280;6917;52.194;9.894;2023-01-31T10:34:45;100464.84;;;3.71;100.00
13690;BME280;6917;52.194;9.894;2023-01-31T10:37:35;100465.38;;;3.73;100.00
13690;BME280;6917;52.194;9.894;2023-01-31T10:40:05;100455.69;;;3.77;100.00
13690;BME280;6917;52.194;9.894;2023-01-31T10:42:38;100464.06;;;3.80;100.00
13690;BME280;6917;52.194;9.894;2023-01-31T10:47:52;100465.16;;;3.89;100.00
13690;BME280;6917;52.194;9.894;2023-01-31T10:50:33;100449.50;;;3.97;100.00
13690;BME280;6917;52.194;9.894;2023-01-31T10:58:13;100429.53;;;4.08;100.00
13690;BME280;6917;52.194;9.894;2023-01-31T11:00:39;100437.91;;;4.11;100.00
13690;BME280;6917;52.194;9.894;2023-01-31T11:03:04;100421.69;;;4.16;100.00
13690;BME280;6917;52.194;9.894;2023-01-31T11:05:30;100407.63;;;4.20;100.00
13690;BME280;6917;52.194;9.894;2023-01-31T11:08:00;100400.88;;;4.22;100.00
13690;BME280;6917;52.194;9.894;2023-01-31T11:10:28;100380.88;;;4.23;100.00
13690;BME280;6917;52.194;9.894;2023-01-31T11:15:24;100378.16;;;4.28;100.00
13690;BME280;6917;52.194;9.894;2023-01-31T11:17:50;100365.41;;;4.34;100.00
13690;BME280;6917;52.194;9.894;2023-01-31T11:20:27;100361.66;;;4.40;100.00
13690;BME280;6917;52.194;9.894;2023-01-31T11:22:54;100382.19;;;4.41;100.00
13690;BME280;6917;52.194;9.894;2023-01-31T11:25:21;100371.66;;;4.39;100.00
13690;BME280;6917;52.194;9.894;2023-01-31T11:27:48;100372.47;;;4.40;100.00
13690;BME280;6917;52.194;9.894;2023-01-31T11:32:49;100359.22;;;4.38;100.00
13690;BME280;6917;52.194;9.894;2023-01-31T11:40:27;100372.19;;;4.46;100.00
13690;BME280;6917;52.194;9.894;2023-01-31T11:42:59;100364.63;;;4.48;100.00
13690;BME280;6917;52.194;9.894;2023-01-31T11:45:36;100341.59;;;4.56;100.00
13690;BME280;6917;52.194;9.894;2023-01-31T11:48:08;100354.56;;;4.59;100.00
13690;BME280;6917;52.194;9.894;2023-01-31T11:50:42;100342.66;;;4.60;100.00
13690;BME280;6917;52.194;9.894;2023-01-31T11:55:50;100335.63;;;4.59;100.00
13690;BME280;6917;52.194;9.894;2023-01-31T11:58:22;100347.81;;;4.57;100.00
13690;BME280;6917;52.194;9.894;2023-01-31T12:00:57;100332.94;;;4.54;100.00
13690;BME280;6917;52.194;9.894;2023-01-31T12:03:24;100319.44;;;4.54;100.00
13690;BME280;6917;52.194;9.894;2023-01-31T12:05:58;100320.50;;;4.53;100.00
13690;BME280;6917;52.194;9.894;2023-01-31T12:08:37;100342.97;;;4.54;100.00
13690;BME280;6917;52.194;9.894;2023-01-31T12:11:26;100322.13;;;4.54;100.00
13690;BME280;6917;52.194;9.894;2023-01-31T12:13:53;100337.28;;;4.55;100.00
13690;BME280;6917;52.194;9.894;2023-01-31T12:16:25;100303.16;;;4.59;100.00
13690;BME280;6917;52.194;9.894;2023-01-31T12:22:08;100305.31;;;4.62;100.00
13690;BME280;6917;52.194;9.894;2023-01-31T12:33:38;100267.97;;;4.69;100.00
13690;BME280;6917;52.194;9.894;2023-01-31T12:39:00;100298.53;;;4.70;100.00
13690;BME280;6917;52.194;9.894;2023-01-31T12:41:38;100292.03;;;4.71;100.00
13690;BME280;6917;52.194;9.894;2023-01-31T12:50:20;100304.78;;;4.70;100.00
13690;BME280;6917;52.194;9.894;2023-01-31T12:58:43;100296.66;;;4.60;100.00
13690;BME280;6917;52.194;9.894;2023-01-31T13:01:36;100284.75;;;4.61;100.00
13690;BME280;6917;52.194;9.894;2023-01-31T13:06:44;100293.72;;;4.57;100.00
13690;BME280;6917;52.194;9.894;2023-01-31T13:09:35;100290.19;;;4.56;100.00
13690;BME280;6917;52.194;9.894;2023-01-31T13:12:08;100281.28;;;4.56;100.00
13690;BME280;6917;52.194;9.894;2023-01-31T13:14:40;100302.38;;;4.54;100.00
13690;BME280;6917;52.194;9.894;2023-01-31T13:17:11;100283.19;;;4.50;100.00
13690;BME280;6917;52.194;9.894;2023-01-31T13:19:45;100286.44;;;4.47;100.00
13690;BME280;6917;52.194;9.894;2023-01-31T13:22:31;100279.41;;;4.41;100.00
13690;BME280;6917;52.194;9.894;2023-01-31T13:25:21;100278.09;;;4.38;100.00
13690;BME280;6917;52.194;9.894;2023-01-31T13:28:00;100273.75;;;4.37;100.00
13690;BME280;6917;52.194;9.894;2023-01-31T13:30:39;100267.00;;;4.35;100.00
13690;BME280;6917;52.194;9.894;2023-01-31T13:33:22;100278.88;;;4.34;100.00
13690;BME280;6917;52.194;9.894;2023-01-31T13:38:43;100270.53;;;4.35;100.00
13690;BME280;6917;52.194;9.894;2023-01-31T13:43:43;100274.56;;;4.38;100.00
13690;BME280;6917;52.194;9.894;2023-01-31T13:46:09;100283.22;;;4.40;100.00
13690;BME280;6917;52.194;9.894;2023-01-31T13:48:53;100271.03;;;4.42;100.00
13690;BME280;6917;52.194;9.894;2023-01-31T13:51:51;100266.97;;;4.45;100.00
13690;BME280;6917;52.194;9.894;2023-01-31T13:56:57;100263.69;;;4.48;100.00
13690;BME280;6917;52.194;9.894;2023-01-31T13:59:26;100258.84;;;4.50;100.00
13690;BME280;6917;52.194;9.894;2023-01-31T14:01:53;100256.94;;;4.51;100.00
13690;BME280;6917;52.194;9.894;2023-01-31T14:04:23;100254.50;;;4.54;100.00
13690;BME280;6917;52.194;9.894;2023-01-31T14:11:51;100240.94;;;4.64;100.00
13690;BME280;6917;52.194;9.894;2023-01-31T14:22:26;100247.09;;;4.80;100.00
13690;BME280;6917;52.194;9.894;2023-01-31T14:25:14;100252.75;;;4.84;100.00
13690;BME280;6917;52.194;9.894;2023-01-31T14:27:59;100236.47;;;4.89;100.00
13690;BME280;6917;52.194;9.894;2023-01-31T14:30:40;100245.69;;;4.93;100.00
13690;BME280;6917;52.194;9.894;2023-01-31T14:35:41;100249.72;;;4.95;100.00
13690;BME280;6917;52.194;9.894;2023-01-31T14:38:41;100252.41;;;5.00;100.00
13690;BME280;6917;52.194;9.894;2023-01-31T14:53:04;100254.78;;;5.12;100.00
13690;BME280;6917;52.194;9.894;2023-01-31T14:58:29;100258.53;;;5.16;100.00
13690;BME280;6917;52.194;9.894;2023-01-31T15:01:01;100250.94;;;5.18;100.00
13690;BME280;6917;52.194;9.894;2023-01-31T15:03:37;100250.66;;;5.20;100.00
13690;BME280;6917;52.194;9.894;2023-01-31T15:06:13;100266.66;;;5.21;100.00
13690;BME280;6917;52.194;9.894;2023-01-31T15:08:41;100260.94;;;5.23;100.00
13690;BME280;6917;52.194;9.894;2023-01-31T15:11:56;100260.13;;;5.22;100.00
13690;BME280;6917;52.194;9.894;2023-01-31T15:13:57;100254.44;;;5.24;100.00
13690;BME280;6917;52.194;9.894;2023-01-31T15:16:24;100253.59;;;5.28;100.00
13690;BME280;6917;52.194;9.894;2023-01-31T15:18:54;100269.84;;;5.28;100.00
13690;BME280;6917;52.194;9.894;2023-01-31T15:21:35;100255.72;;;5.31;100.00
13690;BME280;6917;52.194;9.894;2023-01-31T15:24:05;100269.84;;;5.28;100.00
13690;BME280;6917;52.194;9.894;2023-01-31T15:26:32;100267.13;;;5.28;100.00
13690;BME280;6917;52.194;9.894;2023-01-31T15:29:01;100276.88;;;5.29;100.00
13690;BME280;6917;52.194;9.894;2023-01-31T15:31:28;100277.16;;;5.28;100.00
13690;BME280;6917;52.194;9.894;2023-01-31T15:33:58;100283.38;;;5.28;100.00
13690;BME280;6917;52.194;9.894;2023-01-31T15:36:35;100287.44;;;5.31;100.00
13690;BME280;6917;52.194;9.894;2023-01-31T15:39:17;100273.06;;;5.30;100.00
13690;BME280;6917;52.194;9.894;2023-01-31T15:41:44;100274.44;;;5.28;100.00
13690;BME280;6917;52.194;9.894;2023-01-31T15:46:44;100256.56;;;5.27;100.00